Decoded Metar for RPVM (MASBATE in PHILIPPINES) (IATA:NOP) | Meteo·Mobile Aviation Weather
aviador You're here:

RPVM Decoded Metar

MASBATE in PHILIPPINES
Report Time2019-01-23 06:00:00
UTC Time2019-01-23 06:56:43
Flight Rules vfr VFR
WindVRB at 02 kt
Visibility9999 m
Phenomena:N/A
Clouds:Few 020 Hf
Broken 090 Hf
Expected CloudBase > 400 ft AGL from Temp-Dew spread
Ceiling9,000 ft
Temp27°C (ISA +12)
Dew Point26°C (94% RH)
Heat Index31.2°C
QNH1008 hPa
Density Alt2,034 ft
Elevation33 ft
Report Wrong Elevation
Raw Report
METAR RPVM 230600Z VRB02KT 9999 FEW020 BKN090 27/26 Q1008 NOSIG RMK
A2977=

Extra information for RPVM:More info

Metar Taf Metar & Taf Last 4 Metars F.Rules Stats Wind Profile Meteogram Temp Stats Airport Information Weather charts Add Link Nearby VenuesMetar ALERT Operation Metar Decoded Social comments